Ellis, Wisconsin
Current Conditions -  °F | °C
As of 12:55 AM on Sunday 26 Oct 2014 (Local Time) from KSTE Reporting Station
Clear Clear  
Wind Chill: 38°   Ceiling: Unl
Heat Index: 41°   Visibility: 10mi
Dew Point: 26°   Wind: 5mph
Humidity: 54%   Direction: 270°W
Pressure: 29.98"   Gusts: NA
Location:  44.5531°N, 89.5186°W
Report Text: KSTE 260555Z AUTO 27004KT 10SM CLR 05/M03 A2998 RMK AO2 60001 T00521035 10120 20050 401550050
Loading
Personal Weather Stations






























Interactive Weather Map
Tropical Storm Tracking
New forecast layout! Learn more

10-Day Weather Forecast

Advertisements
Track Severe Weather on mobile